createdAt,value
2018-08-22T00:00:01.702Z,92456.48
2018-08-22T00:02:37.463Z,92452.02
2018-08-22T00:05:13.416Z,92456.72
2018-08-22T00:07:49.207Z,92458.70
2018-08-22T00:10:24.937Z,92456.63
2018-08-22T00:13:00.603Z,92460.80
2018-08-22T00:15:36.456Z,92455.03
2018-08-22T00:18:12.270Z,92460.00
2018-08-22T00:20:47.988Z,92460.26
2018-08-22T00:23:23.853Z,92461.85
2018-08-22T00:26:00.100Z,92454.09
2018-08-22T00:28:35.848Z,92454.94
2018-08-22T00:31:11.552Z,92457.06
2018-08-22T00:33:47.328Z,92459.12
2018-08-22T00:36:23.453Z,92457.45
2018-08-22T00:38:59.362Z,92462.72
2018-08-22T00:41:35.294Z,92463.30
2018-08-22T00:44:11.322Z,92460.67
2018-08-22T00:46:46.923Z,92470.49
2018-08-22T00:49:22.824Z,92468.84
2018-08-22T00:51:58.562Z,92469.61
2018-08-22T00:54:34.392Z,92478.79
2018-08-22T00:57:09.988Z,92473.38
2018-08-22T00:59:45.658Z,92466.20
2018-08-22T01:02:21.490Z,92467.77
2018-08-22T01:04:57.518Z,92469.27
2018-08-22T01:07:33.241Z,92468.67
2018-08-22T01:10:09.869Z,92465.59
2018-08-22T01:12:45.544Z,92477.61
2018-08-22T01:15:21.282Z,92476.27
2018-08-22T01:17:57.150Z,92466.58
2018-08-22T01:20:32.798Z,92470.42
2018-08-22T01:23:09.362Z,92480.22
2018-08-22T01:25:45.062Z,92477.83
2018-08-22T01:28:20.819Z,92478.17
2018-08-22T01:30:56.605Z,92472.70
2018-08-22T01:33:32.401Z,92471.56
2018-08-22T01:36:08.293Z,92475.88
2018-08-22T01:38:44.204Z,92471.28
2018-08-22T01:41:20.317Z,92471.33
2018-08-22T01:43:56.073Z,92467.78
2018-08-22T01:46:31.940Z,92467.86
2018-08-22T01:49:07.801Z,92472.13
2018-08-22T01:51:43.664Z,92474.19
2018-08-22T01:54:19.376Z,92467.39
2018-08-22T01:56:55.238Z,92470.72
2018-08-22T01:59:30.969Z,92471.04
2018-08-22T02:02:06.795Z,92473.18
2018-08-22T02:04:45.328Z,92466.92
2018-08-22T02:07:21.045Z,92469.97
2018-08-22T02:09:59.254Z,92472.27
2018-08-22T02:12:34.992Z,92470.72
2018-08-22T02:15:10.595Z,92468.59
2018-08-22T02:17:46.391Z,92464.31
2018-08-22T02:20:22.017Z,92465.81
2018-08-22T02:22:57.981Z,92467.78
2018-08-22T02:25:33.829Z,92467.41
2018-08-22T02:28:09.472Z,92464.72
2018-08-22T02:30:45.211Z,92470.10
2018-08-22T02:33:21.028Z,92465.88
2018-08-22T02:35:56.802Z,92463.03
2018-08-22T02:38:32.497Z,92469.30
2018-08-22T02:41:08.672Z,92469.00
2018-08-22T02:43:44.450Z,92470.41
2018-08-22T02:46:20.033Z,92465.55
2018-08-22T02:48:56.882Z,92468.32
2018-08-22T02:51:32.701Z,92465.25
2018-08-22T02:54:08.579Z,92465.63
2018-08-22T02:56:44.482Z,92466.16
2018-08-22T02:59:20.325Z,92465.53
2018-08-22T03:01:56.047Z,92466.57
2018-08-22T03:04:31.980Z,92467.44
2018-08-22T03:07:07.856Z,92470.14
2018-08-22T03:09:44.646Z,92472.98
2018-08-22T03:12:20.714Z,92483.64
2018-08-22T03:14:56.454Z,92482.30
2018-08-22T03:17:32.155Z,92483.75
2018-08-22T03:20:07.949Z,92481.42
2018-08-22T03:22:43.845Z,92482.50
2018-08-22T03:25:19.478Z,92482.98
2018-08-22T03:27:55.225Z,92479.87
2018-08-22T03:30:31.107Z,92484.73
2018-08-22T03:33:06.919Z,92478.87
2018-08-22T03:35:42.712Z,92490.27
2018-08-22T03:38:18.553Z,92481.57
2018-08-22T03:40:54.297Z,92486.83
2018-08-22T03:43:30.026Z,92483.83
2018-08-22T03:46:05.888Z,92487.53
2018-08-22T03:48:41.729Z,92495.84
2018-08-22T03:51:17.665Z,92495.02
2018-08-22T03:53:53.398Z,92505.02
2018-08-22T03:56:29.273Z,92503.45
2018-08-22T03:59:05.000Z,92514.08
2018-08-22T04:01:40.932Z,92514.34
2018-08-22T04:04:16.661Z,92518.16
2018-08-22T04:06:52.375Z,92515.42
2018-08-22T04:09:28.209Z,92519.92
2018-08-22T04:12:04.180Z,92524.27
2018-08-22T04:14:40.138Z,92519.06
2018-08-22T04:17:16.047Z,92525.85
2018-08-22T04:19:51.869Z,92534.65
2018-08-22T04:22:27.789Z,92531.97
2018-08-22T04:25:03.607Z,92539.06
2018-08-22T04:27:39.427Z,92543.14
2018-08-22T04:30:15.317Z,92546.89
2018-08-22T04:32:51.061Z,92545.88
2018-08-22T04:35:26.716Z,92542.96
2018-08-22T04:38:02.687Z,92543.94
2018-08-22T04:40:41.816Z,92546.42
2018-08-22T04:43:17.509Z,92548.09
2018-08-22T04:45:53.111Z,92550.09
2018-08-22T04:48:28.945Z,92544.30
2018-08-22T04:51:09.111Z,92547.20
2018-08-22T04:53:44.891Z,92547.64
2018-08-22T04:56:20.809Z,92539.78
2018-08-22T04:58:56.581Z,92539.95
2018-08-22T05:01:32.333Z,92539.98
2018-08-22T05:04:08.197Z,92538.44
2018-08-22T05:06:44.014Z,92543.25
2018-08-22T05:09:19.936Z,92537.70
2018-08-22T05:11:56.310Z,92533.34
2018-08-22T05:14:32.037Z,92531.22
2018-08-22T05:17:08.778Z,92536.05
2018-08-22T05:19:44.578Z,92536.74
2018-08-22T05:22:20.292Z,92531.82
2018-08-22T05:24:56.200Z,92536.11
2018-08-22T05:27:32.017Z,92528.80
2018-08-22T05:30:07.849Z,92528.67
2018-08-22T05:32:43.625Z,92537.41
2018-08-22T05:35:19.497Z,92533.39
2018-08-22T05:37:55.323Z,92536.36
2018-08-22T05:40:31.096Z,92539.29
2018-08-22T05:43:06.921Z,92543.95
2018-08-22T05:45:42.701Z,92541.05
2018-08-22T05:48:18.421Z,92537.22
2018-08-22T05:50:54.317Z,92538.25
2018-08-22T05:53:30.186Z,92543.99
2018-08-22T05:56:01.037Z,92545.00
2018-08-22T05:58:31.922Z,92545.45
2018-08-22T06:01:02.731Z,92535.34
2018-08-22T06:03:33.509Z,92536.36
2018-08-22T06:06:04.307Z,92540.66
2018-08-22T06:08:35.088Z,92545.61
2018-08-22T06:11:05.949Z,92540.98
2018-08-22T06:13:36.826Z,92542.34
2018-08-22T06:16:07.634Z,92541.48
2018-08-22T06:18:38.414Z,92539.67
2018-08-22T06:21:09.289Z,92545.49
2018-08-22T06:23:40.103Z,92542.95
2018-08-22T06:26:11.028Z,92549.53
2018-08-22T06:28:41.832Z,92547.14
2018-08-22T06:31:12.657Z,92548.36
2018-08-22T06:33:43.440Z,92545.58
2018-08-22T06:36:14.276Z,92540.42
2018-08-22T06:38:45.256Z,92541.13
2018-08-22T06:41:16.431Z,92543.43
2018-08-22T06:43:47.217Z,92547.94
2018-08-22T06:46:18.247Z,92544.02
2018-08-22T06:48:49.010Z,92541.72
2018-08-22T06:51:19.816Z,92541.84
2018-08-22T06:53:50.576Z,92544.88
2018-08-22T06:56:21.421Z,92548.28
2018-08-22T06:58:52.057Z,92550.84
2018-08-22T07:01:22.928Z,92543.17
2018-08-22T07:03:54.312Z,92540.98
2018-08-22T07:06:25.124Z,92537.82
2018-08-22T07:08:55.912Z,92542.34
2018-08-22T07:11:26.757Z,92545.25
2018-08-22T07:13:58.633Z,92541.42
2018-08-22T07:16:29.484Z,92542.48
2018-08-22T07:19:00.252Z,92535.99
2018-08-22T07:21:31.085Z,92545.80
2018-08-22T07:24:01.865Z,92541.34
2018-08-22T07:26:32.734Z,92537.45
2018-08-22T07:29:03.496Z,92539.27
2018-08-22T07:31:34.402Z,92537.55
2018-08-22T07:34:05.218Z,92540.72
2018-08-22T07:36:36.011Z,92536.77
2018-08-22T07:39:11.170Z,92539.02
2018-08-22T07:41:42.051Z,92535.25
2018-08-22T07:44:13.044Z,92537.89
2018-08-22T07:46:43.900Z,92522.52
2018-08-22T07:49:15.136Z,92528.98
2018-08-22T07:51:45.964Z,92524.91
2018-08-22T07:54:16.766Z,92519.06
2018-08-22T07:56:48.037Z,92519.80
2018-08-22T07:59:21.465Z,92513.95
2018-08-22T08:01:52.388Z,92519.91
2018-08-22T08:04:23.446Z,92521.47
2018-08-22T08:06:54.285Z,92517.48
2018-08-22T08:09:25.337Z,92518.60
2018-08-22T08:11:56.403Z,92518.45
2018-08-22T08:14:27.268Z,92518.13
2018-08-22T08:16:58.434Z,92507.38
2018-08-22T08:19:29.333Z,92497.16
2018-08-22T08:22:00.148Z,92500.20
2018-08-22T08:24:30.982Z,92502.79
2018-08-22T08:27:01.830Z,92496.66
2018-08-22T08:29:33.813Z,92498.86
2018-08-22T08:32:04.609Z,92498.63
2018-08-22T08:34:35.385Z,92497.04
2018-08-22T08:37:06.174Z,92490.78
2018-08-22T08:39:36.948Z,92482.66
2018-08-22T08:42:07.988Z,92487.20
2018-08-22T08:44:38.754Z,92486.41
2018-08-22T08:47:09.538Z,92484.32
2018-08-22T08:49:40.322Z,92484.20
2018-08-22T08:52:11.340Z,92485.23
2018-08-22T08:54:42.292Z,92479.16
2018-08-22T08:57:13.186Z,92483.10
2018-08-22T08:59:44.136Z,92475.83
2018-08-22T09:02:14.962Z,92464.62
2018-08-22T09:04:45.723Z,92473.85
2018-08-22T09:07:16.563Z,92473.18
2018-08-22T09:09:47.337Z,92476.20
2018-08-22T09:12:18.260Z,92468.62
2018-08-22T09:17:26.249Z,92460.00
2018-08-22T09:19:57.136Z,92462.95
2018-08-22T09:22:27.920Z,92456.47
2018-08-22T09:24:58.700Z,92459.42
2018-08-22T09:27:29.517Z,92455.44
2018-08-22T09:30:00.302Z,92450.06
2018-08-22T09:32:31.310Z,92447.41
2018-08-22T09:35:02.852Z,92442.57
2018-08-22T09:37:33.655Z,92445.02
2018-08-22T09:40:04.524Z,92442.03
2018-08-22T09:42:35.621Z,92438.94
2018-08-22T09:45:06.387Z,92441.38
2018-08-22T09:47:37.167Z,92432.95
2018-08-22T09:50:08.067Z,92434.73
2018-08-22T09:52:39.049Z,92434.88
2018-08-22T09:55:09.810Z,92427.55
2018-08-22T09:57:40.707Z,92433.98
2018-08-22T10:00:16.631Z,92427.70
2018-08-22T10:02:47.574Z,92422.14
2018-08-22T10:05:18.350Z,92427.92
2018-08-22T10:07:49.141Z,92423.12
2018-08-22T10:10:20.566Z,92413.53
2018-08-22T10:12:51.640Z,92421.22
2018-08-22T10:15:22.706Z,92417.66
2018-08-22T10:17:53.645Z,92415.30
2018-08-22T10:20:24.432Z,92404.70
2018-08-22T10:22:55.237Z,92396.56
2018-08-22T10:25:26.792Z,92398.62
2018-08-22T10:27:57.603Z,92401.22
2018-08-22T10:30:28.385Z,92395.07
2018-08-22T10:32:59.205Z,92395.17
2018-08-22T10:35:30.166Z,92391.77
2018-08-22T10:38:01.382Z,92393.19
2018-08-22T10:40:32.154Z,92386.88
2018-08-22T10:43:03.008Z,92382.07
2018-08-22T10:45:33.764Z,92381.24
2018-08-22T10:48:05.547Z,92391.63
2018-08-22T10:50:36.797Z,92389.30
2018-08-22T10:53:08.612Z,92390.12
2018-08-22T10:55:39.369Z,92381.61
2018-08-22T10:58:10.216Z,92380.44
2018-08-22T11:00:40.976Z,92379.17
2018-08-22T11:03:11.938Z,92367.83
2018-08-22T11:05:43.551Z,92374.64
2018-08-22T11:08:14.494Z,92374.22
2018-08-22T11:10:45.276Z,92374.28
2018-08-22T11:13:16.102Z,92369.43
2018-08-22T11:15:58.896Z,92361.88
2018-08-22T11:18:29.957Z,92350.06
2018-08-22T11:21:11.521Z,92361.91
2018-08-22T11:23:53.054Z,92366.65
2018-08-22T11:26:34.531Z,92354.92
2018-08-22T11:29:16.144Z,92353.52
2018-08-22T11:31:57.708Z,92353.48
2018-08-22T11:34:39.302Z,92342.88
2018-08-22T11:37:11.236Z,92347.09
2018-08-22T11:39:43.794Z,92340.05
2018-08-22T11:42:14.585Z,92342.02
2018-08-22T11:44:45.443Z,92335.76
2018-08-22T11:47:16.222Z,92335.73
2018-08-22T11:49:47.057Z,92336.76
2018-08-22T11:52:17.882Z,92320.75
2018-08-22T11:54:48.691Z,92338.41
2018-08-22T11:57:19.512Z,92330.55
2018-08-22T11:59:50.335Z,92329.05
2018-08-22T12:02:21.138Z,92325.67
2018-08-22T12:04:52.442Z,92328.45
2018-08-22T12:07:23.399Z,92333.37
2018-08-22T12:09:54.193Z,92325.67
2018-08-22T12:12:25.230Z,92325.02
2018-08-22T12:14:56.709Z,92318.73
2018-08-22T13:29:00.926Z,92300.78
2018-08-22T13:31:31.587Z,92298.02
2018-08-22T13:34:02.276Z,92297.64
2018-08-22T13:36:32.972Z,92296.84
2018-08-22T13:39:04.589Z,92290.53
2018-08-22T13:41:35.597Z,92282.06
2018-08-22T13:44:07.211Z,92280.44
2018-08-22T13:46:37.884Z,92286.02
2018-08-22T13:49:08.626Z,92284.00
2018-08-22T13:51:39.356Z,92281.98
2018-08-22T13:54:10.101Z,92284.75
2018-08-22T13:56:40.795Z,92284.75
2018-08-22T13:59:11.586Z,92281.28
2018-08-22T14:01:42.271Z,92285.45
2018-08-22T14:04:12.997Z,92288.83
2018-08-22T14:06:43.706Z,92285.20
2018-08-22T14:09:14.387Z,92280.30
2018-08-22T14:11:45.055Z,92284.83
2018-08-22T14:14:16.077Z,92287.52
2018-08-22T14:16:46.894Z,92288.03
2018-08-22T14:19:17.705Z,92289.22
2018-08-22T14:21:48.415Z,92285.96
2018-08-22T14:24:19.134Z,92280.41
2018-08-22T14:26:49.781Z,92281.91
2018-08-22T14:29:20.716Z,92286.04
2018-08-22T14:31:51.385Z,92283.38
2018-08-22T14:34:22.332Z,92277.58
2018-08-22T14:36:52.997Z,92278.84
2018-08-22T14:39:23.920Z,92280.04
2018-08-22T14:41:54.780Z,92281.63
2018-08-22T14:44:25.540Z,92282.63
2018-08-22T14:46:56.202Z,92282.34
2018-08-22T14:49:26.943Z,92286.14
2018-08-22T14:51:57.612Z,92271.60
2018-08-22T14:54:28.314Z,92274.69
2018-08-22T14:56:58.940Z,92270.47
2018-08-22T14:59:29.751Z,92271.14
2018-08-22T15:04:24.737Z,92270.50
2018-08-22T15:06:56.387Z,92278.52
2018-08-22T15:09:27.060Z,92283.38
2018-08-22T15:11:57.801Z,92288.71
2018-08-22T15:14:28.446Z,92286.08
2018-08-22T15:16:59.261Z,92282.96
2018-08-22T15:19:30.281Z,92283.53
2018-08-22T15:22:01.022Z,92283.95
2018-08-22T15:24:31.797Z,92287.91
2018-08-22T15:27:02.600Z,92289.99
2018-08-22T15:29:33.328Z,92289.28
2018-08-22T15:32:06.047Z,92292.68
2018-08-22T15:34:57.034Z,92289.80
2018-08-22T15:37:27.816Z,92296.32
2018-08-22T15:39:58.523Z,92296.84
2018-08-22T15:42:29.266Z,92299.13
2018-08-22T15:44:59.976Z,92291.88
2018-08-22T15:47:30.870Z,92293.22
2018-08-22T15:50:02.834Z,92290.50
2018-08-22T15:52:33.604Z,92289.64
2018-08-22T15:55:11.559Z,92287.42
2018-08-22T15:57:58.733Z,92287.30
2018-08-22T16:00:41.741Z,92288.61
2018-08-22T16:03:13.256Z,92285.63
2018-08-22T16:05:44.853Z,92284.73
2018-08-22T16:08:17.859Z,92282.52
2018-08-22T16:10:48.573Z,92290.66
2018-08-22T16:13:24.876Z,92293.41
2018-08-22T16:15:56.749Z,92296.02
2018-08-22T16:18:27.668Z,92290.45
2018-08-22T16:21:00.632Z,92294.69
2018-08-22T16:23:33.532Z,92294.69
2018-08-22T16:26:05.181Z,92297.30
2018-08-22T16:28:49.866Z,92305.51
2018-08-22T16:31:21.313Z,92303.30
2018-08-22T16:33:52.019Z,92299.70
2018-08-22T16:36:26.792Z,92312.72
2018-08-22T16:38:57.848Z,92310.48
2018-08-22T16:41:28.496Z,92314.41
2018-08-22T16:43:59.217Z,92308.03
2018-08-22T16:46:29.896Z,92315.47
2018-08-22T16:49:00.620Z,92319.34
2018-08-22T16:51:31.313Z,92314.36
2018-08-22T16:54:07.014Z,92318.87
2018-08-22T16:56:38.347Z,92321.54
2018-08-22T16:59:11.767Z,92329.33
2018-08-22T17:01:46.615Z,92328.06
2018-08-22T17:04:17.633Z,92330.19
2018-08-22T17:06:48.514Z,92333.38
2018-08-22T17:09:19.288Z,92332.66
2018-08-22T17:11:50.012Z,92330.64
2018-08-22T17:14:20.761Z,92331.87
2018-08-22T17:16:51.507Z,92339.38
2018-08-22T17:19:22.356Z,92348.92
2018-08-22T17:21:53.033Z,92346.60
2018-08-22T17:24:24.309Z,92348.59
2018-08-22T17:26:56.296Z,92351.20
2018-08-22T17:29:27.095Z,92350.27
2018-08-22T17:32:02.900Z,92352.95
2018-08-22T17:34:33.711Z,92357.80
2018-08-22T17:37:07.852Z,92368.34
2018-08-22T17:39:38.652Z,92359.27
2018-08-22T17:42:09.331Z,92371.81
2018-08-22T17:44:40.058Z,92374.87
2018-08-22T17:47:10.810Z,92377.30
2018-08-22T17:49:41.726Z,92382.31
2018-08-22T17:52:13.333Z,92381.80
2018-08-22T17:54:44.360Z,92384.83
2018-08-22T17:57:21.154Z,92379.52
2018-08-22T17:59:52.751Z,92384.30
2018-08-22T18:02:23.924Z,92386.02
2018-08-22T18:05:02.386Z,92390.83
2018-08-22T18:07:33.077Z,92395.94
2018-08-22T18:10:04.991Z,92396.43
2018-08-22T18:12:35.726Z,92406.27
2018-08-22T18:15:06.515Z,92411.39
2018-08-22T18:17:37.181Z,92414.03
2018-08-22T18:20:08.273Z,92411.59
2018-08-22T18:22:39.672Z,92415.41
2018-08-22T18:25:10.521Z,92419.34
2018-08-22T18:27:41.247Z,92425.60
2018-08-22T18:30:12.730Z,92430.83
2018-08-22T18:32:45.735Z,92436.12
2018-08-22T18:35:16.424Z,92427.92
2018-08-22T18:37:47.109Z,92432.02
2018-08-22T18:40:19.849Z,92434.31
2018-08-22T18:42:52.727Z,92434.76
2018-08-22T18:45:24.082Z,92440.39
2018-08-22T18:47:54.818Z,92438.36
2018-08-22T18:50:25.561Z,92444.50
2018-08-22T18:52:57.591Z,92447.73
2018-08-22T18:55:32.771Z,92436.12
2018-08-22T18:58:04.882Z,92445.33
2018-08-22T19:00:36.702Z,92444.98
2018-08-22T19:03:07.829Z,92451.37
2018-08-22T19:05:38.867Z,92454.38
2018-08-22T19:08:11.368Z,92456.69
2018-08-22T19:10:43.533Z,92451.72
2018-08-22T19:13:16.273Z,92448.51
2018-08-22T19:15:48.845Z,92446.39
2018-08-22T19:18:19.668Z,92452.44
2018-08-22T19:20:51.012Z,92458.03
2018-08-22T19:23:21.814Z,92459.91
2018-08-22T19:25:53.567Z,92457.85
2018-08-22T19:28:24.436Z,92460.81
2018-08-22T19:30:55.189Z,92457.08
2018-08-22T19:33:27.941Z,92454.06
2018-08-22T19:35:58.980Z,92458.61
2018-08-22T19:38:29.933Z,92462.56
2018-08-22T19:41:35.893Z,92458.81
2018-08-22T19:44:07.256Z,92463.31
2018-08-22T19:46:38.010Z,92457.37
2018-08-22T19:49:08.764Z,92451.18
2018-08-22T19:51:39.646Z,92446.97
2018-08-22T19:54:10.435Z,92452.94
2018-08-22T19:56:41.186Z,92457.06
2018-08-22T19:59:17.008Z,92452.42
2018-08-22T20:01:52.700Z,92458.89
2018-08-22T20:04:28.369Z,92452.55
2018-08-22T20:07:04.123Z,92451.19
2018-08-22T20:09:43.934Z,92457.22
2018-08-22T20:12:20.020Z,92452.84
2018-08-22T20:14:56.607Z,92461.95
2018-08-22T20:17:32.480Z,92462.11
2018-08-22T20:20:09.746Z,92453.16
2018-08-22T20:22:47.746Z,92456.02
2018-08-22T20:25:23.705Z,92458.95
2018-08-22T20:28:02.920Z,92470.35
2018-08-22T20:30:38.689Z,92466.60
2018-08-22T20:33:14.522Z,92458.52
2018-08-22T20:35:50.141Z,92459.31
2018-08-22T20:38:25.938Z,92476.32
2018-08-22T20:41:08.860Z,92472.65
2018-08-22T20:43:44.593Z,92463.98
2018-08-22T20:46:22.233Z,92470.30
2018-08-22T20:48:58.036Z,92471.72
2018-08-22T20:51:33.985Z,92470.64
2018-08-22T20:54:14.060Z,92467.98
2018-08-22T20:56:54.630Z,92466.93
2018-08-22T20:59:32.470Z,92464.01
2018-08-22T21:02:09.011Z,92462.77
2018-08-22T21:04:44.957Z,92466.67
2018-08-22T21:07:22.875Z,92462.37
2018-08-22T21:09:58.554Z,92463.53
2018-08-22T21:12:34.202Z,92475.73
2018-08-22T21:15:10.045Z,92478.50
2018-08-22T21:17:45.959Z,92476.07
2018-08-22T21:20:25.560Z,92478.25
2018-08-22T21:23:02.085Z,92477.41
2018-08-22T21:25:37.713Z,92479.30
2018-08-22T21:28:13.935Z,92482.12
2018-08-22T21:30:54.838Z,92485.89
2018-08-22T21:33:31.151Z,92486.27
2018-08-22T21:36:07.015Z,92495.14
2018-08-22T21:38:44.889Z,92492.34
2018-08-22T21:41:20.575Z,92488.45
2018-08-22T21:43:56.327Z,92494.50
2018-08-22T21:46:32.025Z,92487.93
2018-08-22T21:49:12.673Z,92490.53
2018-08-22T21:51:48.214Z,92493.64
2018-08-22T21:54:23.766Z,92487.22
2018-08-22T21:56:59.424Z,92489.73
2018-08-22T21:59:35.201Z,92493.19
2018-08-22T22:02:11.883Z,92493.23
2018-08-22T22:04:47.890Z,92493.69
2018-08-22T22:07:23.603Z,92488.53
2018-08-22T22:10:04.344Z,92481.56
2018-08-22T22:12:40.641Z,92477.16
2018-08-22T22:15:21.162Z,92481.02
2018-08-22T22:17:56.900Z,92476.09
2018-08-22T22:20:32.609Z,92482.83
2018-08-22T22:23:08.305Z,92484.95
2018-08-22T22:25:44.178Z,92482.55
2018-08-22T22:28:20.729Z,92478.66
2018-08-22T22:30:56.422Z,92481.37
2018-08-22T22:33:32.201Z,92488.63
2018-08-22T22:36:07.812Z,92480.42
2018-08-22T22:38:43.603Z,92482.06
2018-08-22T22:41:19.220Z,92483.08
2018-08-22T22:43:54.942Z,92481.38
2018-08-22T22:46:30.642Z,92480.46
2018-08-22T22:49:06.673Z,92475.94
2018-08-22T22:51:42.434Z,92474.75
2018-08-22T22:54:22.665Z,92474.89
2018-08-22T22:56:58.395Z,92472.89
2018-08-22T22:59:34.122Z,92474.69
2018-08-22T23:02:09.806Z,92473.52
2018-08-22T23:04:50.503Z,92476.39
2018-08-22T23:07:32.172Z,92469.68
2018-08-22T23:10:11.549Z,92473.79
2018-08-22T23:12:47.570Z,92470.78
2018-08-22T23:15:27.564Z,92471.20
2018-08-22T23:18:03.220Z,92468.34
2018-08-22T23:20:40.455Z,92469.06
2018-08-22T23:23:36.429Z,92473.08
2018-08-22T23:26:18.929Z,92462.41
2018-08-22T23:28:54.709Z,92463.22
2018-08-22T23:31:30.225Z,92464.13
2018-08-22T23:34:05.987Z,92462.48
2018-08-22T23:36:42.036Z,92463.56
2018-08-22T23:39:17.753Z,92464.09
2018-08-22T23:41:53.338Z,92459.34
2018-08-22T23:44:29.042Z,92465.41
2018-08-22T23:47:04.648Z,92471.36
2018-08-22T23:49:44.338Z,92475.55
2018-08-22T23:52:20.161Z,92473.09
2018-08-22T23:54:55.768Z,92471.59
2018-08-22T23:57:31.479Z,92474.05
